Stations météo

Publicité
Mende, France (7554): Température de l'air & dewpoint: 13.10.2017 21:00:00 - 19.10.2017 21:00:00 (CEST)Mende, France (7554): Température de l'air 5cm: 13.10.2017 21:00:00 - 19.10.2017 21:00:00 (CEST)Mende, France (7554): Température de l'air -20cm & Température de l'air -100cm: 13.10.2017 21:00:00 - 19.10.2017 21:00:00 (CEST)Mende, France (7554): Vitesse du vent & gusts: 13.10.2017 21:00:00 - 19.10.2017 21:00:00 (CEST)Mende, France (7554): Direction du vent: 13.10.2017 21:00:00 - 19.10.2017 21:00:00 (CEST)Mende, France (7554): visibility: 13.10.2017 21:00:00 - 19.10.2017 21:00:00 (CEST)Mende, France (7554): Ensoleillement: 13.10.2017 21:00:00 - 19.10.2017 21:00:00 (CEST)Mende, France (7554): Quantités de précipitations: 13.10.2017 21:00:00 - 19.10.2017 21:00:00 (CEST)
Date & Time tt [°C] td [°C] tt 5cm [°C] tt -20cm [°C] tt -100cm [°C] ff [km/h] ff [knt] fx [km/h] fx [knt] dd vv [km] sd [min] rr [mm]
19.10.2017 21:00:00 12,3 8,9 11,7 14,2 14,7 11 6 36 19 S 20 0 0,0
19.10.2017 20:00:00 13,0 9,1 12,1 14,2 14,6 22 12 42 23 SSE 20 0 0,0
19.10.2017 19:00:00 12,9 8,8 12,3 14,2 14,8 11 6 36 19 SSE 20 0 0,0
19.10.2017 18:00:00 13,5 8,5 13,3 14,2 14,5 16 9 41 22 SE 20 0 0,0
19.10.2017 17:00:00 13,5 8,3 12,6 14,2 14,7 16 9 48 26 SE 20 0 0,0
19.10.2017 16:00:00 14,2 9,2 14,4 14,2 14,5 11 6 45 24 SSE 20 12 0,0
19.10.2017 15:00:00 14,1 9,3 13,4 14,2 14,6 20 11 46 25 S 20 2 0,0
19.10.2017 14:00:00 13,2 9,4 13,5 14,3 14,5 18 10 39 21 SSE 20 0 0,0
19.10.2017 13:00:00 13,6 10,8 13,4 14,3 14,7 17 9 45 24 SSE 20 1 0,0
19.10.2017 12:00:00 13,2 9,6 12,7 14,3 14,7 19 11 44 24 SE 20 0 0,0
19.10.2017 11:00:00 13,2 10,2 12,0 14,4 14,5 14 7 37 20 SE 20 11 0,0
19.10.2017 10:00:00 11,7 9,8 10,4 14,4 14,6 8 4 25 13 ESE 20 0 0,0
19.10.2017 09:00:00 11,0 9,4 10,1 14,4 14,6 10 6 36 19 SE 20 0 0,4
19.10.2017 08:00:00 11,1 10,0 10,5 14,5 14,6 11 6 42 23 SSE 10 0 1,2
19.10.2017 07:00:00 11,5 9,6 10,5 14,5 14,6 15 8 54 29 SE 15 0 0,2
19.10.2017 06:00:00 12,2 9,8 11,8 14,5 14,6 11 6 32 17 SE 20 0 0,0
19.10.2017 05:00:00 12,4 9,9 10,7 14,6 14,6 10 5 25 13 E 20 0 0,0
19.10.2017 04:00:00 12,4 9,9 11,0 14,6 14,5 12 6 44 24 SE 20 0 0,0
19.10.2017 03:00:00 12,7 10,9 11,8 14,6 14,6 14 7 40 22 ESE 20 0 1,7
19.10.2017 02:00:00 12,8 11,5 12,1 14,7 14,6 6 3 35 19 SE 16 0 0,6
19.10.2017 01:00:00 12,9 12,0 12,4 14,7 14,6 6 3 18 10 SSE 7 0 1,2
19.10.2017 00:00:00 12,9 12,0 12,4 14,7 14,7 7 4 22 12 S 10 0 2,0
18.10.2017 23:00:00 13,5 11,7 12,8 14,7 14,4 9 5 29 15 SSE 20 0 0,2
18.10.2017 22:00:00 13,8 11,7 12,9 14,7 14,7 11 6 32 17 ESE 19 0 0,0
18.10.2017 21:00:00 13,9 11,8 13,5 14,8 14,6 16 8 39 21 SSE 20 0 0,0
18.10.2017 20:00:00 13,9 11,4 13,6 14,8 14,6 14 8 44 24 SSE 20 0 0,0
18.10.2017 19:00:00 14,0 11,7 13,6 14,8 14,7 9 5 33 18 SE 20 2 0,0
18.10.2017 18:00:00 14,1 12,0 14,4 14,8 14,8 14 8 29 16 SSE 20 1 0,0
18.10.2017 17:00:00 13,7 11,7 13,4 14,9 14,7 6 4 29 16 SSE 20 0 0,0
18.10.2017 16:00:00 13,8 12,0 12,3 14,9 14,5 16 9 33 18 SE 20 0 0,4
18.10.2017 15:00:00 12,7 11,1 12,2 15,0 14,4 15 8 29 16 SE 10 0 0,8
18.10.2017 14:00:00 12,6 11,5 11,4 15,0 14,8 8 4 29 16 E 20 0 2,9
18.10.2017 13:00:00 12,1 10,7 11,5 15,1 15,1 13 7 39 21 ESE 6 0 5,2
18.10.2017 12:00:00 12,7 10,4 12,7 15,1 14,5 14 7 37 20 SE 20 0 0,0
18.10.2017 11:00:00 13,1 10,5 13,4 15,2 14,6 10 5 43 23 SSE 20 0 0,0
18.10.2017 10:00:00 13,3 9,9 12,3 15,2 14,4 12 7 32 18 SSE 20 0 0,0
18.10.2017 09:00:00 12,7 9,5 12,4 15,3 14,7 8 4 38 20 SSE 20 0 0,0
18.10.2017 08:00:00 12,9 9,9 10,3 15,3 14,7 16 9 35 19 SSE 20 0 0,0
18.10.2017 07:00:00 12,3 8,8 11,4 15,4 14,7 6 3 21 11 ESE 20 0 0,0
18.10.2017 06:00:00 12,8 9,2 10,4 15,5 14,7 8 4 18 10 SE 20 0 0,0
18.10.2017 05:00:00 12,5 9,1 11,6 15,5 14,6 9 5 27 15 SE 20 0 0,0
18.10.2017 04:00:00 12,5 9,3 11,7 15,5 14,7 12 6 32 18 SSE 20 0 0,0
18.10.2017 03:00:00 12,8 9,6 11,5 15,5 14,5 7 4 17 9 SE 20 0 0,0
18.10.2017 02:00:00 12,0 8,5 10,6 15,5 14,5 5 3 22 12 SE 20 0 0,0
18.10.2017 01:00:00 12,6 8,3 11,8 15,5 14,7 11 6 31 17 ESE 20 0 0,0
18.10.2017 00:00:00 12,8 8,7 12,6 15,5 14,8 16 8 30 16 SSE 20 0 0,0
17.10.2017 23:00:00 12,7 8,6 12,5 15,4 14,6 18 10 34 19 SSE 20 0 0,0
17.10.2017 22:00:00 12,6 8,1 12,2 15,3 14,5 8 4 24 13 S 20 0 0,0
17.10.2017 21:00:00 12,4 7,7 11,6 15,2 14,6 8 4 32 17 SSE 20 0 0,0
17.10.2017 20:00:00 12,2 7,5 11,5 15,0 14,6 22 12 42 23 S 20 0 0,0
17.10.2017 19:00:00 13,5 6,1 12,5 14,9 14,8 13 7 35 19 S 20 36 0,0
17.10.2017 18:00:00 16,4 4,4 17,8 14,8 14,7 18 10 35 19 SSE 20 60 0,0
17.10.2017 17:00:00 17,8 4,4 20,1 14,7 14,7 20 11 48 26 S 20 60 0,0
17.10.2017 16:00:00 18,7 2,9 21,7 14,8 14,7 22 12 53 29 S 20 60 0,0
17.10.2017 15:00:00 19,5 2,4 23,2 14,8 14,6 22 12 44 24 S 20 60 0,0
17.10.2017 14:00:00 19,8 3,0 22,8 14,9 14,7 17 9 42 23 SSE 20 60 0,0
17.10.2017 13:00:00 19,1 4,4 22,6 15,0 14,6 14 8 33 18 S 20 60 0,0
17.10.2017 12:00:00 18,1 1,1 22,1 15,1 14,7 15 8 34 19 SSE 20 60 0,0
17.10.2017 11:00:00 17,1 0,3 18,7 15,3 14,7 6 3 18 10 SSE 20 60 0,0
17.10.2017 10:00:00 13,1 -0,2 8,8 15,4 14,5 7 4 16 9 SE 19 60 0,0
17.10.2017 09:00:00 9,1 -1,3 5,4 15,5 14,8 9 5 16 9 E 20 21 0,0
17.10.2017 08:00:00 6,6 -1,6 5,0 15,6 14,7 10 6 14 8 ESE 20 0 0,0
17.10.2017 07:00:00 7,1 -0,6 5,6 15,7 14,6 10 5 16 8 ESE 20 0 0,0
17.10.2017 06:00:00 7,2 0,2 5,8 15,9 14,6 10 6 16 8 ESE 20 0 0,0
17.10.2017 05:00:00 7,3 0,3 5,8 15,9 14,6 9 5 16 9 ESE 20 0 0,0
17.10.2017 04:00:00 6,7 1,4 5,6 16,0 14,7 12 6 18 10 ESE 20 0 0,0
17.10.2017 03:00:00 7,0 2,9 6,1 16,0 14,7 13 7 18 10 ESE 20 0 0,0
17.10.2017 02:00:00 7,4 4,7 6,6 16,0 14,8 10 5 17 9 ESE 20 0 0,0
17.10.2017 01:00:00 8,9 5,8 7,5 16,0 14,7 9 5 17 9 ESE 20 0 0,0
17.10.2017 00:00:00 10,1 6,1 5,7 15,9 14,7 6 3 19 10 ENE 20 0 0,0
16.10.2017 23:00:00 10,7 7,2 8,7 15,8 14,6 10 5 18 10 E 20 0 0,0
16.10.2017 22:00:00 11,8 7,7 10,4 15,8 14,5 9 5 18 10 E 20 0 0,0
16.10.2017 21:00:00 12,6 7,9 10,4 15,6 14,6 9 5 16 9 E 20 0 0,0
16.10.2017 20:00:00 14,4 7,9 11,1 15,4 14,6 7 4 13 7 E 20 0 0,0
16.10.2017 19:00:00 16,3 7,8 15,1 15,3 14,8 9 5 16 9 S 20 41 0,0
16.10.2017 18:00:00 19,0 7,7 20,6 15,2 14,6 10 5 23 12 S 20 60 0,0
16.10.2017 17:00:00 20,2 7,9 22,9 15,1 14,5 12 7 23 12 S 20 60 0,0
16.10.2017 16:00:00 20,9 7,5 24,7 15,1 14,8 11 6 24 13 S 20 60 0,0
16.10.2017 15:00:00 21,4 7,2 25,3 15,1 14,7 11 6 23 12 S 20 60 0,0
16.10.2017 14:00:00 20,1 7,5 24,4 15,2 14,6 12 6 25 14 SSE 20 60 0,0
16.10.2017 13:00:00 19,5 6,6 24,3 15,2 14,7 16 8 25 13 S 20 60 0,0
16.10.2017 12:00:00 18,2 7,3 22,0 15,4 14,7 6 3 15 8 SE 20 60 0,0
16.10.2017 11:00:00 16,4 7,6 19,0 15,5 14,6 5 3 13 7 SE 20 60 0,0
16.10.2017 10:00:00 14,7 7,0 11,7 15,6 14,7 2 1 10 6 ESE 20 60 0,0
16.10.2017 09:00:00 11,5 5,1 6,6 15,7 14,6 4 2 12 7 ESE 20 21 0,0
16.10.2017 08:00:00 8,7 3,7 6,4 15,8 14,3 6 3 15 8 E 20 0 0,0
16.10.2017 07:00:00 10,5 4,4 6,8 15,9 14,6 5 3 11 6 E 19 0 0,0
16.10.2017 06:00:00 10,2 5,0 6,8 16,0 14,7 6 3 12 7 E 20 0 0,0
16.10.2017 05:00:00 8,6 6,2 7,4 16,0 14,5 8 4 14 8 E 20 0 0,0
16.10.2017 04:00:00 8,4 7,0 7,7 16,1 14,7 9 5 13 7 ESE 20 0 0,0
16.10.2017 03:00:00 9,0 7,9 8,3 16,1 14,7 8 5 13 7 SE 15 0 0,0
16.10.2017 02:00:00 9,8 8,7 8,9 16,0 14,8 9 5 14 8 ESE 16 0 0,0
16.10.2017 01:00:00 10,2 9,0 9,3 16,0 14,7 7 4 10 5 ESE 18 0 0,0
16.10.2017 00:00:00 12,1 9,3 10,4 16,0 14,7 4 2 13 7 E 20 0 0,0
15.10.2017 23:00:00 12,8 10,3 10,9 15,9 14,7 4 2 11 6 ENE 20 0 0,0
15.10.2017 22:00:00 12,3 9,8 10,9 15,8 14,6 4 2 21 12 SE 20 0 0,0
15.10.2017 21:00:00 12,9 9,7 11,7 15,6 14,7 8 4 16 9 SE 20 0 0,0
15.10.2017 20:00:00 13,8 9,8 12,0 15,5 14,6 6 3 15 8 S 20 0 0,0
15.10.2017 19:00:00 15,6 9,9 14,6 15,4 14,6 9 5 28 15 SSE 20 45 0,0
15.10.2017 18:00:00 17,9 10,0 19,7 15,3 14,7 13 7 21 11 S 20 60 0,0
15.10.2017 17:00:00 19,3 10,8 22,4 15,2 14,5 13 7 23 12 S 20 60 0,0
15.10.2017 16:00:00 20,0 11,0 24,2 15,2 14,6 14 8 24 13 S 20 60 0,0
15.10.2017 15:00:00 20,1 11,0 24,6 15,2 14,7 10 5 23 12 S 20 60 0,0
15.10.2017 14:00:00 19,3 10,6 24,1 15,2 14,5 14 7 26 14 S 20 60 0,0
15.10.2017 13:00:00 18,8 10,4 23,7 15,3 14,8 11 6 22 12 S 20 60 0,0
15.10.2017 12:00:00 17,5 10,6 15,9 15,4 14,6 9 5 21 12 S 20 40 0,0
15.10.2017 11:00:00 13,7 10,7 12,3 15,5 14,5 5 3 11 6 S 20 0 0,0
15.10.2017 10:00:00 11,0 8,4 10,2 15,6 14,6 6 3 11 6 ESE 20 0 0,0
15.10.2017 09:00:00 9,7 7,5 9,6 15,7 14,6 7 4 12 7 ESE 16 0 0,0
15.10.2017 08:00:00 9,6 7,7 9,3 15,8 14,7 8 4 12 6 ESE 14 0 0,0
15.10.2017 07:00:00 9,5 7,8 9,4 15,9 14,7 7 4 11 6 ESE 12 0 0,0
15.10.2017 06:00:00 9,9 8,3 9,5 15,9 14,6 6 3 10 5 ESE 10 0 0,0
15.10.2017 05:00:00 9,6 8,0 9,3 16,0 14,5 8 4 11 6 SE 11 0 0,0
15.10.2017 04:00:00 9,5 7,8 7,2 16,1 14,5 4 2 10 5 E 16 0 0,0
15.10.2017 03:00:00 9,7 8,9 7,0 16,1 14,6 4 2 9 5 WNW 7 0 0,0
15.10.2017 02:00:00 8,6 7,5 5,1 16,1 14,6 5 3 8 5 NW 13 0 0,0
15.10.2017 01:00:00 10,3 7,4 3,8 16,0 14,6 6 4 8 5 NE 20 0 0,0
15.10.2017 00:00:00 10,1 6,4 5,3 16,0 14,5 2 1 12 7 WSW 20 0 0,0
14.10.2017 23:00:00 12,2 6,7 10,5 15,8 14,8 9 5 14 8 ESE 20 0 0,0
14.10.2017 22:00:00 13,1 6,4 11,9 15,7 14,6 9 5 14 7 ESE 20 0 0,0
14.10.2017 21:00:00 14,0 7,3 12,3 15,5 14,6 7 4 12 7 ESE 20 0 0,0
14.10.2017 20:00:00 16,1 7,0 11,4 15,4 14,5 7 4 14 8 ESE 20 0 0,0
14.10.2017 19:00:00 18,5 4,3 15,5 15,2 14,7 4 2 22 12 SE 20 47 0,0
14.10.2017 18:00:00 21,5 2,7 23,1 15,1 14,7 9 5 22 12 S 20 60 0,0
14.10.2017 17:00:00 23,0 4,0 26,0 15,0 14,7 14 8 23 12 S 19 60 0,0
14.10.2017 16:00:00 24,2 3,5 27,9 15,0 14,8 13 7 22 12 S 19 60 0,0
14.10.2017 15:00:00 24,6 2,7 29,2 15,0 14,5 11 6 22 12 S 19 60 0,0
14.10.2017 14:00:00 24,2 1,1 28,5 15,1 14,7 12 6 22 12 SSE 20 60 0,0
14.10.2017 13:00:00 22,9 0,0 28,7 15,2 14,4 3 2 11 6 WNW 20 60 0,0
14.10.2017 12:00:00 20,9 4,4 22,7 15,2 14,6 2 1 6 3 S 20 60 0,0
14.10.2017 11:00:00 16,2 4,6 14,9 15,4 14,6 5 3 11 6 SE 20 60 0,0
14.10.2017 10:00:00 11,9 2,9 10,2 15,5 14,7 9 5 17 9 ESE 20 60 0,0
14.10.2017 09:00:00 8,9 2,5 6,9 15,6 14,6 11 6 17 9 SE 20 24 0,0
14.10.2017 08:00:00 7,9 2,8 7,0 15,7 14,8 12 6 18 10 SE 20 0 0,0
14.10.2017 07:00:00 8,5 3,5 7,5 15,8 14,6 12 6 15 8 ESE 20 0 0,0
14.10.2017 06:00:00 8,6 4,2 7,6 15,9 14,7 11 6 16 8 SE 20 0 0,0
14.10.2017 05:00:00 8,8 4,4 7,9 15,9 14,6 11 6 16 9 SE 20 0 0,0
14.10.2017 04:00:00 9,5 5,1 8,5 16,0 14,7 12 7 16 8 ESE 20 0 0,0
14.10.2017 03:00:00 9,6 5,0 8,7 15,9 14,6 11 6 15 8 SE 20 0 0,0
14.10.2017 02:00:00 10,5 5,3 9,5 15,9 14,5 10 5 14 7 ESE 20 0 0,0
14.10.2017 01:00:00 11,0 5,5 10,1 15,9 14,7 11 6 14 7 SE 20 0 0,0
14.10.2017 00:00:00 11,6 5,5 10,7 15,7 14,7 11 6 15 8 SE 20 0 0,0
13.10.2017 23:00:00 12,4 5,1 11,3 15,6 14,6 12 7 15 8 SE 20 0 0,0
13.10.2017 22:00:00 14,5 4,5 12,3 15,4 14,5 7 4 10 6 ESE 20 0 0,0
13.10.2017 21:00:00 15,9 4,3 - - - 5 3 11 6 E 20 - 0,0

tt = Température de l'air
td = dewpoint
tt 5cm = Température de l'air 5cm
tt -20cm = Température de l'air -20cm
tt -100cm = Température de l'air -100cm
ff = Vitesse du vent
fx = gusts
dd = Direction du vent
vv = visibility
sd = Ensoleillement
rr = Quantités de précipitations

stations d'obs. à proximité